Wind From: 13-12-2017 10:08 Until: 14-12-2017 06:00 warning for: Wind Level: Yellow info button

Although rather usual in this region, locally or potentially dangerous phenomena are expected. (such as local winds, summer thunderstorms, rising streams or high waves) Be aware and pay attention to the latest weather updates, especially if you carry out activities exposed to weather or close to a stream or shoreline. 


Meteo18 Weather Cam more information Meteo18 Weather Cam


Thunder radar more information blitzortung!


Rain radar more information rain snow radar


Visit our other weather sites:

Template documentation
and downloads

And another site



Weather Underground History page Text

Daily Summary for April 13, 2016 Units:  Metric    English   Both
« Previous Day
Next Day »
Daily Weekly Monthly Yearly Custom
  High: Low: Average:
Temperature: 18.1 °C 6.4 °C 10.7 °C
Dew Point: 12.7 °C 5.8 °C 8.6 °C
Humidity: 98 % 60 % 88 %
Wind Speed: 14.5 km/h 0.0 km/h 1.5 km/h
Wind Gust: 17.7 km/h - -
Wind:- - SW
Pressure: 1012.4 hPa 1007.0 hPa -
Precipitation: 18.5 mm    
Historical Graphs
 
 
Tabular Data for April 13, 2016
Time Temperature Dew Point Pressure Wind Wind Speed Wind Gust Humidity Rainfall Rate (Hourly)
00:02 11.5 °C 8.7 °C 1008.0 hPa WSW 3.2 km/h 11.3 km/h 83 % 0.0 mm
00:07 11.2 °C 8.9 °C 1008.0 hPa SW 3.2 km/h 11.3 km/h 86 % 0.0 mm
00:12 11.0 °C 8.9 °C 1008.4 hPa SW 8.0 km/h 8.0 km/h 87 % 0.0 mm
00:17 11.2 °C 8.6 °C 1008.4 hPa SSW 3.2 km/h 11.3 km/h 84 % 0.3 mm
00:22 11.2 °C 8.8 °C 1008.0 hPa Calm   11.3 km/h 85 % 0.5 mm
00:27 11.1 °C 8.8 °C 1008.0 hPa Calm   11.3 km/h 86 % 0.5 mm
00:32 10.8 °C 8.9 °C 1008.4 hPa SW 1.6 km/h 11.3 km/h 88 % 0.5 mm
00:37 10.6 °C 8.9 °C 1008.4 hPa SW 1.6 km/h 4.8 km/h 89 % 0.8 mm
00:42 10.6 °C 9.0 °C 1008.4 hPa SW 3.2 km/h 6.4 km/h 90 % 0.8 mm
00:47 10.6 °C 9.0 °C 1008.4 hPa WSW 3.2 km/h 6.4 km/h 90 % 0.8 mm
00:52 10.5 °C 8.9 °C 1008.4 hPa WSW 1.6 km/h 6.4 km/h 90 % 0.8 mm
00:57 10.4 °C 8.8 °C 1008.4 hPa Calm   6.4 km/h 90 % 1.0 mm
01:02 10.4 °C 8.8 °C 1008.4 hPa Calm   6.4 km/h 90 % 1.0 mm
01:07 10.5 °C 8.8 °C 1008.4 hPa WSW 1.6 km/h 6.4 km/h 89 % 1.0 mm
01:12 10.5 °C 8.6 °C 1008.4 hPa SW 1.6 km/h 4.8 km/h 88 % 1.3 mm
01:17 10.6 °C 8.9 °C 1008.4 hPa Calm   6.4 km/h 89 % 1.0 mm
01:22 10.5 °C 8.8 °C 1008.4 hPa Calm   6.4 km/h 89 % 1.0 mm
01:27 10.4 °C 8.7 °C 1008.4 hPa Calm   6.4 km/h 89 % 1.0 mm
01:32 10.3 °C 8.7 °C 1008.4 hPa Calm   3.2 km/h 90 % 0.8 mm
01:37 10.2 °C 8.8 °C 1008.4 hPa Calm   1.6 km/h 91 % 0.5 mm
01:42 10.1 °C 8.9 °C 1008.4 hPa Calm     92 % 0.8 mm
01:52 10.0 °C 8.9 °C 1008.4 hPa Calm     93 % 0.8 mm
01:57 9.9 °C 8.8 °C 1008.4 hPa Calm     93 % 0.5 mm
02:02 9.9 °C 8.8 °C 1008.4 hPa Calm     93 % 0.5 mm
02:12 9.8 °C 8.9 °C 1008.0 hPa Calm     94 % 0.5 mm
02:17 9.7 °C 8.8 °C 1008.0 hPa Calm     94 % 0.3 mm
02:22 9.7 °C 8.8 °C 1008.0 hPa Calm     94 % 0.5 mm
02:27 9.7 °C 8.8 °C 1008.0 hPa Calm     94 % 0.5 mm
02:32 9.7 °C 8.8 °C 1008.0 hPa Calm     94 % 0.5 mm
02:37 9.7 °C 8.8 °C 1008.0 hPa Calm     94 % 0.5 mm
02:42 9.6 °C 8.7 °C 1008.0 hPa Calm     94 % 0.3 mm
02:47 9.7 °C 8.8 °C 1008.0 hPa Calm     94 % 0.3 mm
02:52 9.7 °C 8.8 °C 1007.7 hPa Calm     94 % 0.3 mm
02:57 9.7 °C 8.9 °C 1007.7 hPa Calm     95 % 0.3 mm
03:02 9.7 °C 8.9 °C 1007.7 hPa Calm     95 % 0.3 mm
03:07 9.6 °C 8.8 °C 1007.3 hPa Calm     95 % 0.3 mm
03:12 9.6 °C 8.8 °C 1007.3 hPa Calm     95 % 0.3 mm
03:17 9.5 °C 8.7 °C 1007.3 hPa Calm     95 % 0.3 mm
03:22 9.4 °C 8.6 °C 1007.3 hPa Calm     95 % 0.0 mm
03:27 9.4 °C 8.6 °C 1007.3 hPa Calm     95 % 0.0 mm
03:32 9.3 °C 8.5 °C 1007.3 hPa Calm     95 % 0.0 mm
03:42 9.2 °C 8.4 °C 1007.3 hPa Calm     95 % 0.0 mm
03:47 9.1 °C 8.3 °C 1007.0 hPa Calm     95 % 0.0 mm
03:57 8.7 °C 7.9 °C 1007.3 hPa Calm     95 % 0.0 mm
04:02 8.6 °C 7.8 °C 1007.3 hPa Calm     95 % 0.0 mm
04:07 8.5 °C 7.7 °C 1007.0 hPa Calm     95 % 0.0 mm
04:12 8.3 °C 7.5 °C 1007.0 hPa Calm     95 % 0.0 mm
04:17 8.2 °C 7.4 °C 1007.3 hPa Calm     95 % 0.0 mm
04:22 8.0 °C 7.2 °C 1007.0 hPa Calm     95 % 0.0 mm
04:27 7.7 °C 6.9 °C 1007.0 hPa Calm     95 % 0.0 mm
04:32 7.6 °C 6.9 °C 1007.3 hPa Calm     95 % 0.0 mm
04:37 7.4 °C 6.7 °C 1007.3 hPa Calm     95 % 0.0 mm
04:42 7.3 °C 6.6 °C 1007.3 hPa Calm     95 % 0.0 mm
04:47 7.2 °C 6.5 °C 1007.3 hPa Calm     95 % 0.0 mm
04:52 7.2 °C 6.5 °C 1007.3 hPa Calm     95 % 0.0 mm
04:57 7.1 °C 6.5 °C 1007.3 hPa Calm     96 % 0.0 mm
05:02 7.1 °C 6.5 °C 1007.3 hPa Calm     96 % 0.0 mm
05:07 7.0 °C 6.4 °C 1007.0 hPa Calm     96 % 0.0 mm
05:12 7.0 °C 6.4 °C 1007.3 hPa Calm     96 % 0.0 mm
05:17 7.1 °C 6.5 °C 1007.0 hPa Calm     96 % 0.0 mm
05:22 7.1 °C 6.5 °C 1007.0 hPa Calm     96 % 0.0 mm
05:32 7.1 °C 6.5 °C 1007.0 hPa Calm     96 % 0.0 mm
05:37 7.2 °C 6.8 °C 1007.0 hPa Calm     97 % 0.0 mm
05:42 7.1 °C 6.5 °C 1007.0 hPa Calm     96 % 0.0 mm
05:47 7.1 °C 6.5 °C 1007.0 hPa Calm     96 % 0.0 mm
05:52 7.0 °C 6.4 °C 1007.0 hPa Calm     96 % 0.0 mm
05:57 6.9 °C 6.3 °C 1007.0 hPa Calm     96 % 0.0 mm
06:02 6.9 °C 6.3 °C 1007.0 hPa Calm     96 % 0.0 mm
06:07 6.7 °C 6.1 °C 1007.0 hPa Calm     96 % 0.0 mm
06:12 6.6 °C 6.0 °C 1007.0 hPa Calm     96 % 0.0 mm
06:17 6.4 °C 5.8 °C 1007.0 hPa Calm     96 % 0.0 mm
06:22 6.4 °C 5.8 °C 1007.0 hPa Calm     96 % 0.0 mm
06:27 6.4 °C 6.0 °C 1007.0 hPa Calm     97 % 0.0 mm
06:32 6.4 °C 6.0 °C 1007.0 hPa Calm     97 % 0.0 mm
06:42 6.4 °C 5.8 °C 1007.0 hPa Calm     96 % 0.0 mm
06:47 6.4 °C 6.0 °C 1007.0 hPa Calm     97 % 0.0 mm
06:52 6.5 °C 6.1 °C 1007.0 hPa Calm     97 % 0.0 mm
06:57 6.6 °C 6.2 °C 1007.0 hPa Calm     97 % 0.0 mm
07:02 6.8 °C 6.4 °C 1007.0 hPa Calm     97 % 0.0 mm
07:07 6.9 °C 6.5 °C 1007.0 hPa Calm     97 % 0.0 mm
07:12 7.0 °C 6.6 °C 1007.3 hPa Calm     97 % 0.0 mm
07:17 7.1 °C 6.7 °C 1007.3 hPa Calm     97 % 0.0 mm
07:22 7.1 °C 6.7 °C 1007.3 hPa Calm     97 % 0.0 mm
07:27 7.1 °C 6.7 °C 1007.3 hPa Calm     97 % 0.0 mm
07:32 6.9 °C 6.5 °C 1007.0 hPa Calm     97 % 0.0 mm
07:37 6.9 °C 6.5 °C 1007.0 hPa Calm     97 % 0.0 mm
07:42 6.7 °C 6.3 °C 1007.0 hPa Calm     97 % 0.0 mm
07:47 6.6 °C 6.2 °C 1007.3 hPa Calm     97 % 0.0 mm
07:52 6.7 °C 6.3 °C 1007.3 hPa Calm     97 % 0.0 mm
07:57 6.7 °C 6.3 °C 1007.3 hPa Calm     97 % 0.0 mm
08:02 6.6 °C 6.2 °C 1007.3 hPa Calm     97 % 0.0 mm
08:07 6.6 °C 6.2 °C 1007.3 hPa Calm     97 % 0.0 mm
08:12 6.9 °C 6.5 °C 1007.3 hPa Calm     97 % 0.0 mm
08:17 7.2 °C 6.9 °C 1007.3 hPa Calm     98 % 0.0 mm
08:22 7.4 °C 7.1 °C 1007.3 hPa Calm     98 % 0.0 mm
08:27 7.5 °C 7.2 °C 1007.3 hPa Calm     98 % 0.0 mm
08:32 7.8 °C 7.5 °C 1007.3 hPa Calm     98 % 0.0 mm
08:37 7.9 °C 7.6 °C 1007.3 hPa Calm     98 % 0.0 mm
08:47 8.8 °C 8.5 °C 1007.3 hPa Calm     98 % 0.0 mm
08:52 9.1 °C 8.8 °C 1007.3 hPa Calm     98 % 0.0 mm
09:02 9.4 °C 9.1 °C 1007.3 hPa South 1.6 km/h 1.6 km/h 98 % 0.0 mm
09:12 9.8 °C 9.5 °C 1007.7 hPa Calm   3.2 km/h 98 % 0.0 mm
09:17 10.2 °C 9.9 °C 1007.7 hPa Calm   3.2 km/h 98 % 0.0 mm
09:22 10.4 °C 10.1 °C 1007.3 hPa Calm   6.4 km/h 98 % 0.0 mm
09:27 10.6 °C 10.1 °C 1007.3 hPa Calm   6.4 km/h 97 % 0.0 mm
09:32 10.7 °C 9.9 °C 1007.3 hPa SW 1.6 km/h 6.4 km/h 95 % 0.0 mm
09:37 10.7 °C 9.9 °C 1007.3 hPa Calm   6.4 km/h 95 % 0.0 mm
09:42 10.7 °C 9.8 °C 1007.3 hPa Calm   6.4 km/h 94 % 0.0 mm
09:47 11.0 °C 10.2 °C 1007.3 hPa Calm   4.8 km/h 95 % 0.0 mm
09:52 11.6 °C 10.5 °C 1007.3 hPa Calm   3.2 km/h 93 % 0.0 mm
10:02 12.2 °C 10.8 °C 1007.7 hPa SW 4.8 km/h 6.4 km/h 91 % 0.0 mm
10:07 11.9 °C 10.3 °C 1007.7 hPa SW 3.2 km/h 8.0 km/h 90 % 0.0 mm
10:12 11.7 °C 10.1 °C 1007.7 hPa SW 1.6 km/h 8.0 km/h 90 % 0.0 mm
10:17 11.7 °C 10.1 °C 1007.7 hPa WSW 3.2 km/h 6.4 km/h 90 % 0.0 mm
10:27 12.5 °C 10.7 °C 1007.7 hPa SW 3.2 km/h 4.8 km/h 89 % 0.0 mm
10:32 13.1 °C 11.3 °C 1007.7 hPa WSW 3.2 km/h 4.8 km/h 89 % 0.0 mm
10:37 13.6 °C 11.5 °C 1007.7 hPa WSW 3.2 km/h 6.4 km/h 87 % 0.0 mm
10:42 13.6 °C 10.6 °C 1007.7 hPa WSW 1.6 km/h 8.0 km/h 82 % 0.0 mm
10:47 13.8 °C 10.8 °C 1007.7 hPa SW 3.2 km/h 8.0 km/h 82 % 0.0 mm
10:52 14.1 °C 11.1 °C 1007.7 hPa Calm   8.0 km/h 82 % 0.0 mm
10:57 14.3 °C 10.9 °C 1007.7 hPa SW 3.2 km/h 6.4 km/h 80 % 0.0 mm
11:02 14.5 °C 11.1 °C 1007.7 hPa WSW 3.2 km/h 4.8 km/h 80 % 0.0 mm
11:07 14.9 °C 11.5 °C 1007.7 hPa Calm   6.4 km/h 80 % 0.0 mm
11:17 15.6 °C 11.0 °C 1008.0 hPa WSW 3.2 km/h 8.0 km/h 74 % 0.0 mm
11:22 15.6 °C 11.2 °C 1008.0 hPa Calm   9.7 km/h 75 % 0.0 mm
11:27 16.3 °C 12.1 °C 1008.0 hPa NE 1.6 km/h 9.7 km/h 76 % 0.0 mm
11:32 16.3 °C 11.2 °C 1008.0 hPa Calm   6.4 km/h 72 % 0.0 mm
11:37 16.3 °C 11.5 °C 1008.0 hPa Calm   6.4 km/h 73 % 0.0 mm
11:52 16.6 °C 10.9 °C 1008.0 hPa Calm   8.0 km/h 69 % 0.0 mm
11:57 16.7 °C 11.4 °C 1008.0 hPa SW 3.2 km/h 8.0 km/h 71 % 0.0 mm
12:02 16.7 °C 10.3 °C 1008.0 hPa WSW 3.2 km/h 6.4 km/h 66 % 0.0 mm
12:07 16.5 °C 10.4 °C 1008.0 hPa Calm   6.4 km/h 67 % 0.0 mm
12:12 16.5 °C 10.1 °C 1008.0 hPa NE 1.6 km/h 6.4 km/h 66 % 0.0 mm
12:17 16.9 °C 11.2 °C 1008.0 hPa Calm   6.4 km/h 69 % 0.0 mm
12:22 16.9 °C 11.0 °C 1008.0 hPa SW 8.0 km/h 8.0 km/h 68 % 0.0 mm
12:27 16.9 °C 11.8 °C 1008.0 hPa SW 3.2 km/h 11.3 km/h 72 % 0.0 mm
12:32 17.2 °C 11.0 °C 1008.0 hPa SW 8.0 km/h 11.3 km/h 67 % 0.0 mm
12:37 17.1 °C 11.1 °C 1008.0 hPa West 6.4 km/h 9.7 km/h 68 % 0.0 mm
12:47 17.2 °C 11.5 °C 1007.7 hPa WSW 6.4 km/h 11.3 km/h 69 % 0.0 mm
12:52 17.5 °C 11.3 °C 1007.7 hPa SW 1.6 km/h 11.3 km/h 67 % 0.0 mm
13:02 17.5 °C 10.6 °C 1007.7 hPa Calm   11.3 km/h 64 % 0.0 mm
13:12 17.5 °C 10.1 °C 1007.7 hPa Calm   6.4 km/h 62 % 0.0 mm
13:17 17.4 °C 10.0 °C 1007.7 hPa SW 1.6 km/h 9.7 km/h 62 % 0.0 mm
13:22 17.2 °C 10.1 °C 1007.7 hPa South 1.6 km/h 9.7 km/h 63 % 0.0 mm
13:27 17.1 °C 10.0 °C 1007.3 hPa Calm   9.7 km/h 63 % 0.0 mm
13:32 17.1 °C 10.5 °C 1007.3 hPa SW 1.6 km/h 8.0 km/h 65 % 0.0 mm
13:37 16.7 °C 10.5 °C 1007.3 hPa SW 4.8 km/h 6.4 km/h 67 % 0.0 mm
13:42 16.1 °C 9.7 °C 1007.3 hPa SSW 3.2 km/h 6.4 km/h 66 % 0.0 mm
13:47 16.4 °C 10.7 °C 1007.3 hPa SW 1.6 km/h 6.4 km/h 69 % 0.0 mm
13:52 17.2 °C 11.9 °C 1007.3 hPa SSW 1.6 km/h 6.4 km/h 71 % 0.0 mm
13:57 17.6 °C 10.9 °C 1007.3 hPa SW 4.8 km/h 9.7 km/h 65 % 0.0 mm
14:02 17.1 °C 10.2 °C 1007.3 hPa Calm   9.7 km/h 64 % 0.0 mm
14:07 16.7 °C 10.1 °C 1007.3 hPa SW 3.2 km/h 9.7 km/h 65 % 0.0 mm
14:12 17.1 °C 10.2 °C 1007.3 hPa SW 4.8 km/h 8.0 km/h 64 % 0.0 mm
14:17 17.3 °C 10.4 °C 1007.3 hPa SW 3.2 km/h 9.7 km/h 64 % 0.0 mm
14:22 17.1 °C 10.0 °C 1007.3 hPa SW 4.8 km/h 9.7 km/h 63 % 0.0 mm
14:32 16.8 °C 9.0 °C 1007.3 hPa WSW 12.9 km/h 12.9 km/h 60 % 0.0 mm
14:37 16.7 °C 9.9 °C 1007.3 hPa SW 3.2 km/h 12.9 km/h 64 % 0.0 mm
14:47 16.4 °C 9.3 °C 1007.7 hPa West 1.6 km/h 12.9 km/h 63 % 0.0 mm
14:52 16.4 °C 10.7 °C 1007.7 hPa SW 4.8 km/h 8.0 km/h 69 % 0.0 mm
14:57 16.3 °C 11.2 °C 1007.3 hPa WSW 4.8 km/h 9.7 km/h 72 % 0.0 mm
15:02 16.2 °C 10.1 °C 1007.7 hPa Calm   9.7 km/h 67 % 0.0 mm
15:12 16.2 °C 10.7 °C 1007.7 hPa SW 1.6 km/h 11.3 km/h 70 % 0.0 mm
15:17 16.1 °C 11.7 °C 1007.7 hPa WSW 3.2 km/h 11.3 km/h 75 % 0.0 mm
15:22 16.3 °C 11.2 °C 1007.7 hPa SW 4.8 km/h 12.9 km/h 72 % 0.0 mm
15:27 17.3 °C 12.6 °C 1007.3 hPa SW 4.8 km/h 12.9 km/h 74 % 0.0 mm
15:37 18.1 °C 11.4 °C 1007.3 hPa WSW 4.8 km/h 14.5 km/h 65 % 0.0 mm
15:42 18.1 °C 11.9 °C 1007.3 hPa West 4.8 km/h 14.5 km/h 67 % 0.0 mm
15:47 18.1 °C 11.9 °C 1007.3 hPa SW 4.8 km/h 14.5 km/h 67 % 0.0 mm
15:52 17.8 °C 12.7 °C 1007.3 hPa West 4.8 km/h 11.3 km/h 72 % 0.0 mm
15:57 17.3 °C 11.6 °C 1007.3 hPa West 3.2 km/h 12.9 km/h 69 % 0.0 mm
16:02 16.4 °C 11.5 °C 1007.3 hPa South 6.4 km/h 16.1 km/h 73 % 0.0 mm
16:12 15.8 °C 11.8 °C 1007.0 hPa West 8.0 km/h 12.9 km/h 77 % 0.0 mm
16:17 15.2 °C 11.2 °C 1007.0 hPa SW 3.2 km/h 16.1 km/h 77 % 0.0 mm
16:22 14.9 °C 11.1 °C 1007.0 hPa West 14.5 km/h 16.1 km/h 78 % 0.0 mm
16:27 14.7 °C 10.9 °C 1007.3 hPa SW 3.2 km/h 16.1 km/h 78 % 0.0 mm
16:32 14.6 °C 11.0 °C 1007.3 hPa Calm   16.1 km/h 79 % 0.0 mm
16:42 14.0 °C 8.4 °C 1007.7 hPa ENE 4.8 km/h 8.0 km/h 69 % 0.0 mm
16:47 13.7 °C 9.9 °C 1007.7 hPa WSW 6.4 km/h 9.7 km/h 78 % 0.0 mm
16:52 12.7 °C 8.8 °C 1008.0 hPa WSW 1.6 km/h 12.9 km/h 77 % 1.8 mm
16:57 11.1 °C 7.8 °C 1008.0 hPa Calm   12.9 km/h 80 % 2.8 mm
17:02 10.1 °C 7.0 °C 1008.4 hPa Calm   12.9 km/h 81 % 4.1 mm
17:07 9.7 °C 7.0 °C 1008.0 hPa Calm   6.4 km/h 83 % 4.1 mm
17:12 9.1 °C 6.9 °C 1008.0 hPa Calm   3.2 km/h 86 % 4.1 mm
17:17 8.9 °C 7.2 °C 1008.0 hPa Calm   1.6 km/h 89 % 4.1 mm
17:22 9.1 °C 7.7 °C 1008.4 hPa Calm   1.6 km/h 91 % 4.1 mm
17:32 9.0 °C 7.8 °C 1008.7 hPa Calm   1.6 km/h 92 % 4.3 mm
17:42 9.0 °C 7.9 °C 1009.0 hPa Calm   1.6 km/h 93 % 5.3 mm
17:47 9.0 °C 7.9 °C 1008.7 hPa Calm   1.6 km/h 93 % 5.6 mm
17:52 9.1 °C 8.0 °C 1008.7 hPa Calm   3.2 km/h 93 % 4.8 mm
17:57 9.2 °C 7.8 °C 1008.4 hPa Calm   4.8 km/h 91 % 2.8 mm
18:02 9.2 °C 7.8 °C 1008.4 hPa West 1.6 km/h 4.8 km/h 91 % 3.0 mm
18:12 9.2 °C 7.6 °C 1008.4 hPa West 1.6 km/h 4.8 km/h 90 % 3.3 mm
18:17 9.2 °C 7.5 °C 1008.4 hPa Calm   4.8 km/h 89 % 3.3 mm
18:22 9.3 °C 7.7 °C 1008.4 hPa Calm   4.8 km/h 90 % 3.0 mm
18:27 9.3 °C 7.7 °C 1008.7 hPa Calm   3.2 km/h 90 % 3.0 mm
18:32 9.3 °C 7.7 °C 1008.7 hPa Calm   3.2 km/h 90 % 3.0 mm
18:37 9.2 °C 7.8 °C 1008.7 hPa WSW 1.6 km/h 3.2 km/h 91 % 2.0 mm
18:42 9.1 °C 7.4 °C 1008.7 hPa WSW 1.6 km/h 4.8 km/h 89 % 1.5 mm
18:52 8.9 °C 7.2 °C 1009.0 hPa Calm   4.8 km/h 89 % 0.5 mm
18:57 9.0 °C 7.4 °C 1009.4 hPa Calm   4.8 km/h 90 % 0.5 mm
19:02 9.0 °C 7.6 °C 1009.4 hPa Calm   3.2 km/h 91 % 0.5 mm
19:07 8.9 °C 7.7 °C 1009.4 hPa Calm   1.6 km/h 92 % 0.5 mm
19:12 8.8 °C 7.7 °C 1009.7 hPa ENE 1.6 km/h 1.6 km/h 93 % 0.3 mm
19:17 8.7 °C 7.6 °C 1009.7 hPa Calm   1.6 km/h 93 % 0.5 mm
19:22 8.8 °C 7.7 °C 1009.7 hPa Calm   1.6 km/h 93 % 0.5 mm
19:27 8.8 °C 7.9 °C 1009.7 hPa Calm   1.6 km/h 94 % 0.5 mm
19:32 9.0 °C 7.9 °C 1010.0 hPa Calm   6.4 km/h 93 % 0.5 mm
19:37 9.2 °C 8.0 °C 1010.0 hPa SW 1.6 km/h 6.4 km/h 92 % 0.8 mm
19:42 9.3 °C 8.1 °C 1010.0 hPa WSW 1.6 km/h 6.4 km/h 92 % 0.8 mm
19:47 9.2 °C 8.1 °C 1010.0 hPa SW 1.6 km/h 3.2 km/h 93 % 1.0 mm
19:52 9.2 °C 8.1 °C 1010.0 hPa WSW 1.6 km/h 4.8 km/h 93 % 1.0 mm
19:57 9.1 °C 8.0 °C 1010.4 hPa SW 3.2 km/h 6.4 km/h 93 % 1.5 mm
20:02 9.1 °C 8.0 °C 1010.4 hPa South 6.4 km/h 6.4 km/h 93 % 1.8 mm
20:07 8.9 °C 7.7 °C 1010.7 hPa SW 6.4 km/h 11.3 km/h 92 % 2.3 mm
20:12 9.1 °C 7.9 °C 1010.7 hPa SW 8.0 km/h 11.3 km/h 92 % 3.3 mm
20:17 9.2 °C 8.0 °C 1010.7 hPa SW 12.9 km/h 14.5 km/h 92 % 3.6 mm
20:22 9.2 °C 8.0 °C 1010.7 hPa WSW 3.2 km/h 17.7 km/h 92 % 4.1 mm
20:27 9.2 °C 7.5 °C 1011.1 hPa SW 3.2 km/h 17.7 km/h 89 % 4.3 mm
20:32 9.2 °C 7.6 °C 1011.1 hPa WSW 6.4 km/h 17.7 km/h 90 % 5.8 mm
20:37 9.0 °C 7.4 °C 1011.1 hPa WSW 1.6 km/h 12.9 km/h 90 % 5.8 mm
20:42 8.9 °C 7.3 °C 1011.1 hPa SW 4.8 km/h 12.9 km/h 90 % 7.1 mm
20:47 8.8 °C 7.2 °C 1011.1 hPa SW 3.2 km/h 12.9 km/h 90 % 7.4 mm
20:52 8.9 °C 7.5 °C 1011.1 hPa SW 3.2 km/h 12.9 km/h 91 % 7.1 mm
20:57 8.9 °C 7.7 °C 1010.7 hPa Calm   12.9 km/h 92 % 7.6 mm
21:02 8.8 °C 7.7 °C 1010.7 hPa Calm   12.9 km/h 93 % 7.6 mm
21:12 8.7 °C 7.6 °C 1010.4 hPa WSW 3.2 km/h 9.7 km/h 93 % 6.1 mm
21:17 8.8 °C 7.6 °C 1010.4 hPa SSW 4.8 km/h 11.3 km/h 92 % 5.6 mm
21:22 8.7 °C 7.6 °C 1010.4 hPa WSW 3.2 km/h 11.3 km/h 93 % 4.8 mm
21:27 8.7 °C 7.6 °C 1010.7 hPa SW 4.8 km/h 9.7 km/h 93 % 4.3 mm
21:32 8.8 °C 7.6 °C 1010.7 hPa SW 3.2 km/h 9.7 km/h 92 % 3.3 mm
21:37 8.8 °C 7.6 °C 1010.7 hPa SW 4.8 km/h 9.7 km/h 92 % 2.3 mm
21:42 8.9 °C 7.7 °C 1010.7 hPa SW 3.2 km/h 9.7 km/h 92 % 1.5 mm
21:47 8.9 °C 7.7 °C 1010.7 hPa WSW 4.8 km/h 8.0 km/h 92 % 1.3 mm
21:57 8.9 °C 7.7 °C 1011.1 hPa South 3.2 km/h 8.0 km/h 92 % 0.3 mm
22:02 8.8 °C 7.7 °C 1011.1 hPa West 1.6 km/h 6.4 km/h 93 % 0.0 mm
22:12 8.7 °C 7.8 °C 1011.1 hPa SW 1.6 km/h 4.8 km/h 94 % 0.0 mm
22:17 8.7 °C 7.8 °C 1011.1 hPa SW 1.6 km/h 4.8 km/h 94 % 0.0 mm
22:22 8.7 °C 7.8 °C 1011.4 hPa Calm   4.8 km/h 94 % 0.0 mm
22:27 8.7 °C 7.8 °C 1011.4 hPa Calm   4.8 km/h 94 % 0.0 mm
22:37 8.6 °C 7.7 °C 1011.7 hPa Calm   1.6 km/h 94 % 0.0 mm
22:42 8.6 °C 7.7 °C 1011.7 hPa Calm   1.6 km/h 94 % 0.0 mm
22:47 8.6 °C 7.7 °C 1011.7 hPa WSW 3.2 km/h 3.2 km/h 94 % 0.0 mm
22:52 8.6 °C 7.7 °C 1011.7 hPa Calm   4.8 km/h 94 % 0.0 mm
22:57 8.6 °C 7.7 °C 1011.7 hPa WSW 1.6 km/h 6.4 km/h 94 % 0.0 mm
23:02 8.7 °C 7.8 °C 1011.7 hPa Calm   6.4 km/h 94 % 0.0 mm
23:07 8.7 °C 7.8 °C 1011.7 hPa Calm   3.2 km/h 94 % 0.0 mm
23:12 8.6 °C 7.7 °C 1011.7 hPa Calm   3.2 km/h 94 % 0.0 mm
23:17 8.6 °C 7.7 °C 1012.1 hPa Calm   3.2 km/h 94 % 0.0 mm
23:22 8.6 °C 7.7 °C 1012.1 hPa Calm   1.6 km/h 94 % 0.0 mm
23:27 8.5 °C 7.6 °C 1012.1 hPa Calm   1.6 km/h 94 % 0.0 mm
23:32 8.4 °C 7.5 °C 1012.4 hPa Calm     94 % 0.0 mm
23:37 8.4 °C 7.6 °C 1012.4 hPa Calm     95 % 0.0 mm
23:42 8.4 °C 7.6 °C 1012.1 hPa Calm   1.6 km/h 95 % 0.0 mm
23:47 8.4 °C 7.6 °C 1012.1 hPa Calm   3.2 km/h 95 % 0.0 mm
23:52 8.4 °C 7.6 °C 1012.1 hPa WSW 3.2 km/h 3.2 km/h 95 % 0.0 mm
23:57 8.5 °C 7.6 °C 1012.4 hPa Calm   8.0 km/h 94 % 0.0 mm
Meteo18
Compliments of Weather Underground - 4 mb

Script developed by  Jim McMurry - jmcmurry@mwt.net Adapted for the template by  Wim van der Kuil - Leuven-Template.eu

You find our weather info also at:

European Weather Network

Weather Underground

Equipment we use:

Weather-station
Davis Vue

Weather-program
Meteohub

Weather-server
Raspberry PI 2 B+

Provider
1 and 1

Davis Vue

Meteohub

Raspberry PI 2 B+

1 and 1